Time;durP1;ratioP1;P1;durP2;ratioP2;P2;SDS_P1;SDS_P2;PMS_P1;PMS_P2;Temp;Humidity;BMP_temperature;BMP_pressure;BME280_temperature;BME280_humidity;BME280_pressure;Samples;Min_cycle;Max_cycle;Signal;HPM_P1;HPM_P2
2023/05/08 00:02:00;;;;;;;10.63;3.30;;;14.80;99.90;;;;;;4956991;28;20031;-71
2023/05/08 00:04:26;;;;;;;7.43;3.50;;;14.70;99.90;;;;;;4958441;28;20570;-71
2023/05/08 00:06:52;;;;;;;6.07;3.38;;;14.80;99.90;;;;;;4954090;28;20061;-71
2023/05/08 00:09:19;;;;;;;6.20;3.27;;;14.80;99.90;;;;;;4952612;28;20500;-71
2023/05/08 00:11:44;;;;;;;5.40;3.33;;;14.80;99.90;;;;;;4956692;28;20090;-71
2023/05/08 00:14:10;;;;;;;5.37;2.93;;;14.90;99.90;;;;;;4953731;28;20456;-72
2023/05/08 00:16:36;;;;;;;6.43;3.57;;;14.90;99.90;;;;;;4953233;28;20578;-76
2023/05/08 00:19:02;;;;;;;4.63;3.50;;;14.90;99.90;;;;;;4953205;28;20036;-72
2023/05/08 00:21:29;;;;;;;8.13;3.70;;;14.90;99.90;;;;;;4955494;28;20399;-71
2023/05/08 00:23:55;;;;;;;5.55;3.65;;;14.80;99.90;;;;;;4953422;28;20023;-71
2023/05/08 00:26:21;;;;;;;10.23;4.20;;;14.80;99.90;;;;;;4953557;28;20062;-73
2023/05/08 00:28:47;;;;;;;9.20;4.97;;;14.80;99.90;;;;;;4954830;28;20061;-70
2023/05/08 00:31:12;;;;;;;6.72;5.25;;;14.80;99.90;;;;;;4953753;28;20114;-73
2023/05/08 00:33:38;;;;;;;12.68;8.02;;;14.90;99.90;;;;;;4956778;28;20551;-73
2023/05/08 00:36:04;;;;;;;17.97;11.13;;;14.90;99.90;;;;;;4952964;28;20369;-70
2023/05/08 00:38:35;;;;;;;16.73;11.23;;;14.90;99.90;;;;;;4955204;28;20283;-73
2023/05/08 00:41:02;;;;;;;17.15;10.52;;;14.90;99.90;;;;;;4957441;28;20122;-72
2023/05/08 00:43:28;;;;;;;16.38;11.05;;;14.90;99.90;;;;;;4950898;28;20055;-72
2023/05/08 00:46:00;;;;;;;14.50;10.43;;;15.00;99.90;;;;;;4954209;28;20459;-73
2023/05/08 00:48:32;;;;;;;18.23;10.55;;;15.10;99.90;;;;;;4953017;28;20024;-72
2023/05/08 00:50:59;;;;;;;15.30;9.32;;;15.00;99.90;;;;;;4955643;28;20042;-73
2023/05/08 00:53:26;;;;;;;17.88;9.65;;;15.00;99.90;;;;;;4952338;28;20107;-70
2023/05/08 00:55:52;;;;;;;19.30;9.65;;;15.10;99.90;;;;;;4953219;28;20035;-71
2023/05/08 00:58:19;;;;;;;13.82;8.65;;;15.00;99.90;;;;;;4948356;28;20035;-70
2023/05/08 01:00:46;;;;;;;18.02;6.53;;;14.90;99.90;;;;;;4950501;28;20971;-70
2023/05/08 01:03:12;;;;;;;;;;;14.90;99.90;;;;;;4953851;28;20035;-70
2023/05/08 01:05:38;;;;;;;14.15;7.32;;;14.70;99.90;;;;;;4955236;28;19964;-70
2023/05/08 01:08:05;;;;;;;14.85;7.57;;;14.50;99.90;;;;;;4954259;28;20523;-70
2023/05/08 01:10:54;;;;;;;13.20;7.13;;;14.50;99.90;;;;;;4952141;28;20036;-74
2023/05/08 01:13:28;;;;;;;14.68;8.07;;;14.50;99.90;;;;;;4954945;28;20035;-71
2023/05/08 01:16:15;;;;;;;12.10;7.95;;;14.50;99.90;;;;;;4953705;28;20061;-71
2023/05/08 01:18:52;;;;;;;15.82;8.75;;;14.40;99.90;;;;;;4955513;28;20077;-71
2023/05/08 01:21:37;;;;;;;14.45;8.13;;;14.30;99.90;;;;;;4958897;28;20040;-75
2023/05/08 01:24:40;;;;;;;18.10;8.57;;;14.30;99.90;;;;;;4948216;28;20031;-71
2023/05/08 01:27:11;;;;;;;15.73;8.27;;;14.40;99.90;;;;;;4954473;28;20119;-72
2023/05/08 01:30:05;;;;;;;16.45;9.30;;;14.50;99.90;;;;;;4954325;28;20039;-70
2023/05/08 01:32:37;;;;;;;15.32;9.63;;;14.50;99.90;;;;;;4951908;28;20032;-75
2023/05/08 01:35:06;;;;;;;21.63;10.27;;;14.40;99.90;;;;;;4951622;28;20058;-70
2023/05/08 01:37:51;;;;;;;19.75;9.82;;;14.30;99.90;;;;;;4953245;28;20046;-71
2023/05/08 01:40:36;;;;;;;20.73;10.95;;;14.30;99.90;;;;;;4952753;28;20392;-71
2023/05/08 01:43:16;;;;;;;20.35;9.77;;;14.40;99.90;;;;;;4954445;28;20027;-75
2023/05/08 01:45:45;;;;;;;14.80;8.25;;;14.50;99.90;;;;;;4953146;28;20035;-71
2023/05/08 01:48:26;;;;;;;16.38;8.80;;;14.40;99.90;;;;;;4950140;28;20539;-74
2023/05/08 01:50:59;;;;;;;21.38;9.48;;;14.30;99.90;;;;;;4954343;28;20031;-71
2023/05/08 01:53:32;;;;;;;15.88;9.55;;;14.30;99.90;;;;;;4955818;28;20023;-70
2023/05/08 01:56:02;;;;;;;20.73;10.60;;;14.30;99.90;;;;;;4953278;28;20030;-72
2023/05/08 01:58:29;;;;;;;17.20;11.10;;;14.30;99.90;;;;;;4952951;28;20026;-71
2023/05/08 02:00:56;;;;;;;18.58;9.40;;;14.40;99.90;;;;;;4944176;28;20031;-70
2023/05/08 02:03:23;;;;;;;13.07;9.70;;;14.40;99.90;;;;;;4949102;28;20417;-70
2023/05/08 02:05:51;;;;;;;15.43;8.60;;;14.50;99.90;;;;;;4952587;28;20035;-71
2023/05/08 02:08:19;;;;;;;18.88;10.02;;;14.60;99.90;;;;;;4951119;28;20526;-72
2023/05/08 02:10:47;;;;;;;17.08;9.90;;;14.60;99.90;;;;;;4952492;28;20508;-71
2023/05/08 02:13:17;;;;;;;14.95;9.02;;;14.60;99.90;;;;;;4952488;28;20042;-72
2023/05/08 02:15:44;;;;;;;16.30;9.57;;;14.70;99.90;;;;;;4953066;28;20090;-72
2023/05/08 02:18:12;;;;;;;13.10;9.07;;;14.90;99.90;;;;;;4950844;28;20038;-74
2023/05/08 02:20:39;;;;;;;14.00;8.63;;;14.80;99.90;;;;;;4952552;28;20085;-70
2023/05/08 02:23:05;;;;;;;12.82;8.60;;;14.80;99.90;;;;;;4953529;28;20023;-71
2023/05/08 02:25:32;;;;;;;21.92;8.43;;;14.70;99.90;;;;;;4955502;28;20031;-71
2023/05/08 02:27:57;;;;;;;;;;;14.70;99.90;;;;;;4951028;28;20035;-74
2023/05/08 02:30:25;;;;;;;16.02;10.30;;;14.70;99.90;;;;;;4952091;28;20414;-71
2023/05/08 02:32:52;;;;;;;11.93;8.80;;;14.70;99.90;;;;;;4952786;28;20378;-71
2023/05/08 02:35:19;;;;;;;14.75;10.00;;;14.70;99.90;;;;;;4954791;28;20030;-76
2023/05/08 02:37:54;;;;;;;13.07;9.27;;;14.70;99.90;;;;;;4955754;28;20498;-72
2023/05/08 02:40:23;;;;;;;12.43;8.80;;;14.80;99.90;;;;;;4952762;28;20043;-72
2023/05/08 02:42:49;;;;;;;12.80;9.43;;;14.80;99.90;;;;;;4951577;28;20587;-72
2023/05/08 02:45:15;;;;;;;12.43;9.18;;;14.80;99.90;;;;;;4952682;28;20019;-72
2023/05/08 02:47:59;;;;;;;13.95;9.13;;;14.80;99.90;;;;;;4950953;28;20023;-72
2023/05/08 02:50:50;;;;;;;14.00;9.43;;;14.80;99.90;;;;;;4952890;28;20035;-74
2023/05/08 02:53:23;;;;;;;16.50;10.25;;;14.70;99.90;;;;;;4944656;29;20035;-75
2023/05/08 02:55:53;;;;;;;15.52;10.98;;;14.70;99.90;;;;;;4954413;28;20023;-71
2023/05/08 02:58:43;;;;;;;16.35;11.85;;;14.70;99.90;;;;;;4950188;28;20053;-72
2023/05/08 03:01:49;;;;;;;14.23;10.75;;;14.70;99.90;;;;;;4951361;28;20050;-72
2023/05/08 03:04:24;;;;;;;16.33;11.50;;;14.80;99.90;;;;;;4956816;28;20125;-71
2023/05/08 03:06:52;;;;;;;17.90;11.18;;;14.90;99.90;;;;;;4952235;28;20042;-72
2023/05/08 03:09:20;;;;;;;15.90;10.82;;;14.90;99.90;;;;;;4954663;28;20022;-72
2023/05/08 03:11:48;;;;;;;16.77;12.02;;;14.80;99.90;;;;;;4951462;28;20097;-72
2023/05/08 03:14:21;;;;;;;15.75;11.15;;;14.90;99.90;;;;;;4953664;28;20042;-71
2023/05/08 03:16:51;;;;;;;14.07;10.25;;;14.80;99.90;;;;;;4954376;28;20027;-72
2023/05/08 03:19:47;;;;;;;16.85;10.70;;;14.70;99.90;;;;;;4954381;28;20022;-70
2023/05/08 03:22:14;;;;;;;19.95;11.90;;;14.80;99.90;;;;;;4954111;28;20051;-71
2023/05/08 03:24:43;;;;;;;17.00;11.23;;;14.80;99.90;;;;;;4950249;28;20884;-71
2023/05/08 03:27:09;;;;;;;16.70;11.30;;;14.80;99.90;;;;;;4950797;28;20118;-74
2023/05/08 03:29:37;;;;;;;14.20;10.98;;;14.80;99.90;;;;;;4953120;28;20138;-71
2023/05/08 03:32:02;;;;;;;17.60;12.38;;;14.90;99.90;;;;;;4952282;28;20039;-74
2023/05/08 03:34:30;;;;;;;18.03;12.60;;;14.90;99.90;;;;;;4950133;28;20403;-72
2023/05/08 03:36:55;;;;;;;21.25;11.75;;;14.90;99.90;;;;;;4951234;28;20029;-76
2023/05/08 03:39:23;;;;;;;17.67;11.65;;;14.90;99.90;;;;;;4951813;28;20050;-73
2023/05/08 03:41:48;;;;;;;21.23;13.32;;;14.90;99.90;;;;;;4950149;28;20062;-74
2023/05/08 03:44:16;;;;;;;18.57;12.90;;;14.90;99.90;;;;;;4951408;28;20488;-72
2023/05/08 03:46:43;;;;;;;24.13;15.77;;;15.00;99.90;;;;;;4949452;28;20462;-76
2023/05/08 03:49:10;;;;;;;24.05;15.60;;;15.00;99.90;;;;;;4951281;28;20017;-71
2023/05/08 03:51:41;;;;;;;25.17;15.95;;;15.00;99.90;;;;;;4949997;28;20173;-72
2023/05/08 03:54:06;;;;;;;25.17;16.17;;;15.10;99.90;;;;;;4949759;28;20019;-76
2023/05/08 03:56:32;;;;;;;25.03;15.07;;;15.10;99.90;;;;;;4952966;28;20050;-78
2023/05/08 03:59:20;;;;;;;25.10;15.38;;;15.10;99.90;;;;;;4954653;28;20447;-71
2023/05/08 04:01:48;;;;;;;;;;;15.00;99.90;;;;;;4951396;28;20047;-75
2023/05/08 04:04:18;;;;;;;23.85;14.40;;;15.00;99.90;;;;;;4949551;28;19906;-71
2023/05/08 04:07:19;;;;;;;25.02;14.90;;;14.90;99.90;;;;;;4950296;28;20055;-72
2023/05/08 04:10:36;;;;;;;23.40;13.98;;;14.90;99.90;;;;;;4948717;28;20496;-75
2023/05/08 04:13:12;;;;;;;25.75;14.93;;;15.00;99.90;;;;;;4934647;29;20425;-74
2023/05/08 04:15:56;;;;;;;22.65;14.88;;;15.00;99.90;;;;;;4932769;29;20028;-72
2023/05/08 04:18:28;;;;;;;20.40;14.32;;;15.00;99.90;;;;;;4945609;28;20492;-71
2023/05/08 04:20:56;;;;;;;25.75;15.52;;;14.90;99.90;;;;;;4952366;28;20098;-74
2023/05/08 04:23:23;;;;;;;23.88;14.40;;;15.00;99.90;;;;;;4948515;28;20023;-75
2023/05/08 04:25:51;;;;;;;25.27;15.85;;;14.90;99.90;;;;;;4952964;28;20037;-75
2023/05/08 04:28:19;;;;;;;27.25;16.55;;;15.00;99.90;;;;;;4949941;28;20175;-73
2023/05/08 04:30:45;;;;;;;28.63;17.67;;;15.00;99.90;;;;;;4948371;29;20037;-72
2023/05/08 04:33:12;;;;;;;34.33;17.42;;;15.00;99.90;;;;;;4950952;28;20439;-74
2023/05/08 04:35:38;;;;;;;26.25;17.17;;;15.00;99.90;;;;;;4938791;28;20416;-73
2023/05/08 04:38:03;;;;;;;26.97;16.83;;;15.10;99.90;;;;;;4950119;28;20028;-76
2023/05/08 04:40:29;;;;;;;26.40;16.87;;;15.00;99.90;;;;;;4948172;28;20114;-74
2023/05/08 04:42:55;;;;;;;27.00;17.57;;;15.00;99.90;;;;;;4950516;28;20562;-73
2023/05/08 04:45:21;;;;;;;28.48;17.77;;;15.00;99.90;;;;;;4954074;28;20043;-72
2023/05/08 04:47:46;;;;;;;22.00;15.65;;;15.00;99.90;;;;;;4950127;28;20539;-71
2023/05/08 04:50:12;;;;;;;25.67;16.27;;;15.00;99.90;;;;;;4953269;28;20060;-71
2023/05/08 04:52:38;;;;;;;25.57;16.80;;;15.10;99.90;;;;;;4951733;28;20384;-73
2023/05/08 04:55:04;;;;;;;26.50;16.97;;;15.10;99.90;;;;;;4956340;28;20027;-76
2023/05/08 04:57:29;;;;;;;26.77;17.92;;;15.10;99.90;;;;;;4952203;28;20042;-77
2023/05/08 04:59:55;;;;;;;26.23;17.30;;;15.10;99.90;;;;;;4951062;28;20035;-76
2023/05/08 05:02:20;;;;;;;26.57;17.90;;;15.10;99.90;;;;;;4952299;28;20110;-74
2023/05/08 05:04:46;;;;;;;25.63;18.10;;;15.10;99.90;;;;;;4954046;28;20043;-75
2023/05/08 05:07:12;;;;;;;32.47;19.80;;;15.10;99.90;;;;;;4949607;28;20228;-74
2023/05/08 05:09:38;;;;;;;26.50;18.33;;;15.10;99.90;;;;;;4952533;28;20023;-74
2023/05/08 05:12:05;;;;;;;24.95;17.98;;;15.10;99.90;;;;;;4954738;28;20432;-76
2023/05/08 05:14:30;;;;;;;24.77;16.10;;;15.20;99.90;;;;;;4939847;29;20046;-70
2023/05/08 05:16:56;;;;;;;24.15;17.40;;;15.20;99.90;;;;;;4952523;28;20449;-72
2023/05/08 05:19:22;;;;;;;23.47;16.60;;;15.20;99.90;;;;;;4953784;28;20041;-74
2023/05/08 05:21:48;;;;;;;25.50;16.77;;;15.20;99.90;;;;;;4950281;28;20566;-72
2023/05/08 05:24:13;;;;;;;29.38;17.45;;;15.20;99.90;;;;;;4952462;28;20038;-72
2023/05/08 05:26:39;;;;;;;23.40;16.20;;;15.20;99.90;;;;;;4952707;28;20065;-72
2023/05/08 05:29:05;;;;;;;24.55;16.63;;;15.20;99.90;;;;;;4952139;28;20031;-71
2023/05/08 05:31:31;;;;;;;23.63;16.27;;;15.20;99.90;;;;;;4951427;28;20110;-70
2023/05/08 05:33:56;;;;;;;24.63;15.50;;;15.30;99.90;;;;;;4951442;28;20027;-74
2023/05/08 05:36:22;;;;;;;30.67;16.65;;;15.40;99.90;;;;;;4952091;28;20039;-75
2023/05/08 05:38:48;;;;;;;19.80;13.50;;;15.40;99.90;;;;;;4954978;28;20035;-72
2023/05/08 05:41:14;;;;;;;17.08;12.85;;;15.50;99.90;;;;;;4952640;28;20077;-70
2023/05/08 05:43:39;;;;;;;17.52;12.15;;;15.50;99.90;;;;;;4950044;28;20086;-71
2023/05/08 05:46:06;;;;;;;15.70;10.67;;;15.70;99.90;;;;;;4951886;28;20054;-69
2023/05/08 05:48:32;;;;;;;10.52;8.02;;;15.80;99.90;;;;;;4937080;29;20507;-72
2023/05/08 05:50:58;;;;;;;14.63;8.37;;;15.80;99.90;;;;;;4953245;28;20023;-72
2023/05/08 05:53:23;;;;;;;11.47;8.63;;;15.70;99.90;;;;;;4948097;28;20023;-71
2023/05/08 05:55:49;;;;;;;13.50;8.07;;;15.70;99.90;;;;;;4950371;28;20459;-69
2023/05/08 05:58:15;;;;;;;9.53;7.23;;;15.80;99.90;;;;;;4949468;28;20023;-68
2023/05/08 06:00:41;;;;;;;10.82;7.63;;;15.90;99.90;;;;;;4952765;28;20073;-69
2023/05/08 06:03:07;;;;;;;9.70;6.70;;;16.00;99.90;;;;;;4949868;28;20039;-73
2023/05/08 06:05:33;;;;;;;7.93;6.67;;;15.90;99.90;;;;;;4950871;28;20035;-69
2023/05/08 06:07:59;;;;;;;10.38;6.72;;;15.80;99.90;;;;;;4953429;28;20601;-73
2023/05/08 06:10:25;;;;;;;13.38;6.80;;;15.80;99.90;;;;;;4953655;28;20034;-71
2023/05/08 06:12:50;;;;;;;8.60;6.67;;;15.90;99.90;;;;;;4953322;28;20639;-71
2023/05/08 06:15:16;;;;;;;11.37;6.53;;;16.00;99.90;;;;;;4953985;28;20323;-70
2023/05/08 06:17:42;;;;;;;7.90;6.27;;;16.20;99.90;;;;;;4950630;28;20085;-70
2023/05/08 06:20:08;;;;;;;8.97;5.30;;;16.50;99.90;;;;;;4949655;28;20112;-72
2023/05/08 06:22:33;;;;;;;7.70;5.53;;;16.60;99.90;;;;;;4950860;28;20082;-69
2023/05/08 06:24:59;;;;;;;10.68;6.25;;;16.80;99.90;;;;;;4943445;28;20039;-72
2023/05/08 06:27:25;;;;;;;6.50;5.27;;;16.70;99.90;;;;;;4952755;28;20523;-71
2023/05/08 06:29:52;;;;;;;7.97;5.70;;;16.80;99.90;;;;;;4952953;28;20267;-73
2023/05/08 06:32:18;;;;;;;8.55;5.18;;;16.90;99.90;;;;;;4949979;28;20045;-72
2023/05/08 06:34:44;;;;;;;9.15;5.57;;;17.00;99.90;;;;;;4938477;28;20031;-71
2023/05/08 06:37:10;;;;;;;7.85;4.85;;;17.00;99.90;;;;;;4945235;29;20086;-72
2023/05/08 06:39:35;;;;;;;11.20;6.20;;;16.90;99.90;;;;;;4954555;28;20023;-72
2023/05/08 06:42:02;;;;;;;8.68;5.28;;;16.80;99.90;;;;;;4949382;28;20043;-76
2023/05/08 06:44:27;;;;;;;;;;;16.70;99.90;;;;;;4951859;28;20031;-73
2023/05/08 06:46:54;;;;;;;7.35;4.18;;;16.80;99.90;;;;;;4949753;28;20045;-72
2023/05/08 06:49:19;;;;;;;7.47;4.75;;;16.80;99.90;;;;;;4950572;28;20440;-74
2023/05/08 06:51:45;;;;;;;5.82;4.00;;;16.90;99.90;;;;;;4950318;28;20031;-71
2023/05/08 06:54:10;;;;;;;9.73;4.57;;;16.80;99.90;;;;;;4947936;28;20035;-71
2023/05/08 06:56:37;;;;;;;6.20;4.20;;;16.70;99.90;;;;;;4951074;28;20615;-70
2023/05/08 06:59:03;;;;;;;8.77;4.22;;;16.70;99.90;;;;;;4948133;28;20420;-73
2023/05/08 07:01:28;;;;;;;8.77;4.57;;;16.70;99.90;;;;;;4954111;28;20051;-70
2023/05/08 07:03:54;;;;;;;8.33;4.13;;;16.70;99.90;;;;;;4951803;28;20136;-69
2023/05/08 07:06:19;;;;;;;5.33;3.57;;;16.50;99.90;;;;;;4949825;28;20039;-70
2023/05/08 07:08:45;;;;;;;8.50;4.30;;;16.60;99.90;;;;;;4948951;28;20069;-74
2023/05/08 07:11:10;;;;;;;4.17;3.40;;;16.90;99.90;;;;;;4945777;28;20028;-70
2023/05/08 07:13:36;;;;;;;8.53;4.03;;;17.20;99.90;;;;;;4948567;28;20032;-69
2023/05/08 07:16:04;;;;;;;5.90;3.40;;;17.40;99.90;;;;;;4950947;28;20106;-70
2023/05/08 07:18:29;;;;;;;5.55;3.60;;;17.50;99.90;;;;;;4951756;28;20035;-70
2023/05/08 07:20:55;;;;;;;5.93;3.40;;;17.40;99.90;;;;;;4950021;28;20038;-73
2023/05/08 07:23:21;;;;;;;5.63;3.97;;;17.20;99.90;;;;;;4952134;28;20034;-70
2023/05/08 07:25:46;;;;;;;5.33;3.73;;;17.40;99.90;;;;;;4951535;28;20329;-71
2023/05/08 07:28:12;;;;;;;7.97;3.93;;;17.40;99.90;;;;;;4951407;28;20050;-70
2023/05/08 07:30:38;;;;;;;6.60;3.78;;;17.70;99.90;;;;;;4949610;28;20290;-71
2023/05/08 07:33:04;;;;;;;7.63;3.33;;;18.20;99.90;;;;;;4948781;28;20089;-71
2023/05/08 07:35:29;;;;;;;12.17;3.77;;;18.40;99.90;;;;;;4950639;28;20322;-73
2023/05/08 07:37:55;;;;;;;9.60;3.47;;;18.80;99.90;;;;;;4949353;28;20045;-72
2023/05/08 07:40:21;;;;;;;6.37;3.90;;;18.90;99.90;;;;;;4944965;28;20042;-73
2023/05/08 07:42:46;;;;;;;6.27;3.50;;;19.10;99.90;;;;;;4949159;28;20034;-71
2023/05/08 07:45:12;;;;;;;9.47;3.83;;;18.70;99.90;;;;;;4946629;28;20070;-68
2023/05/08 07:47:47;;;;;;;9.07;3.63;;;18.40;99.90;;;;;;4950644;28;20046;-77
2023/05/08 07:50:13;;;;;;;5.35;2.92;;;18.70;99.90;;;;;;4952131;28;20043;-71
2023/05/08 07:52:38;;;;;;;8.33;2.90;;;19.10;99.90;;;;;;4947828;28;20042;-71
2023/05/08 07:55:04;;;;;;;15.73;3.27;;;18.70;99.90;;;;;;4948282;28;20589;-71
2023/05/08 07:57:40;;;;;;;6.80;3.33;;;18.40;99.90;;;;;;4950821;28;20043;-76
2023/05/08 08:00:10;;;;;;;17.50;4.75;;;18.30;99.90;;;;;;4950509;28;20054;-72
2023/05/08 08:02:37;;;;;;;18.85;3.97;;;18.20;99.90;;;;;;4949331;28;20084;-72
2023/05/08 08:05:03;;;;;;;10.70;3.33;;;18.50;99.90;;;;;;4948384;28;20448;-72
2023/05/08 08:07:31;;;;;;;13.32;3.88;;;19.30;99.90;;;;;;4955527;28;20169;-72
2023/05/08 08:09:58;;;;;;;12.48;3.72;;;19.50;99.90;;;;;;4945994;28;20036;-71
2023/05/08 08:12:24;;;;;;;7.28;3.13;;;19.30;99.90;;;;;;4949891;28;20042;-71
2023/05/08 08:14:50;;;;;;;14.07;3.83;;;20.00;99.90;;;;;;4948805;28;20027;-72
2023/05/08 08:17:16;;;;;;;4.80;2.77;;;20.00;99.90;;;;;;4951576;28;20527;-73
2023/05/08 08:19:41;;;;;;;6.28;2.80;;;19.40;99.90;;;;;;4950569;28;20023;-71
2023/05/08 08:22:07;;;;;;;8.30;3.33;;;19.70;99.90;;;;;;4952529;28;20129;-72
2023/05/08 08:24:33;;;;;;;7.03;2.37;;;21.00;99.90;;;;;;4954416;28;20186;-72
2023/05/08 08:26:58;;;;;;;3.08;2.75;;;20.70;99.90;;;;;;4950767;28;20122;-67
2023/05/08 08:29:24;;;;;;;4.83;3.17;;;19.90;99.90;;;;;;4951398;28;20178;-69
2023/05/08 08:31:50;;;;;;;6.45;3.05;;;19.30;99.90;;;;;;4952640;28;20027;-69
2023/05/08 08:34:16;;;;;;;151.53;28.87;;;19.50;99.90;;;;;;4946003;28;20035;-70
2023/05/08 08:36:41;;;;;;;13.87;4.33;;;20.10;99.90;;;;;;4925394;29;20811;-70
2023/05/08 08:39:07;;;;;;;97.40;21.00;;;20.00;99.90;;;;;;4950451;28;20031;-70
2023/05/08 08:41:32;;;;;;;98.67;19.23;;;19.30;99.90;;;;;;4951177;28;20051;-70
2023/05/08 08:43:58;;;;;;;30.50;9.77;;;19.10;99.90;;;;;;4950818;28;20043;-70
2023/05/08 08:46:25;;;;;;;29.65;6.93;;;18.70;99.90;;;;;;4950339;28;20070;-70
2023/05/08 08:48:56;;;;;;;39.28;10.05;;;21.30;99.90;;;;;;4947591;28;20035;-70
2023/05/08 08:51:30;;;;;;;32.63;9.02;;;21.50;99.90;;;;;;4953032;28;20039;-72
2023/05/08 08:54:04;;;;;;;16.10;4.65;;;21.80;99.90;;;;;;4951945;28;20019;-69
2023/05/08 08:56:32;;;;;;;16.75;6.22;;;22.40;99.10;;;;;;4954864;28;20066;-70
2023/05/08 08:59:00;;;;;;;19.73;6.93;;;21.90;99.90;;;;;;4955890;28;20027;-70
2023/05/08 09:01:28;;;;;;;15.73;6.20;;;24.80;95.00;;;;;;4951894;28;20038;-70
2023/05/08 09:03:56;;;;;;;16.10;5.45;;;24.50;93.90;;;;;;4953587;28;20036;-71
2023/05/08 09:06:21;;;;;;;7.22;4.25;;;23.10;93.90;;;;;;4948113;28;20067;-70
2023/05/08 09:08:48;;;;;;;8.45;2.78;;;25.10;92.00;;;;;;4950569;28;20023;-71
2023/05/08 09:11:13;;;;;;;11.52;3.13;;;24.70;90.60;;;;;;4941677;28;20035;-69
2023/05/08 09:13:39;;;;;;;10.75;3.20;;;23.20;93.30;;;;;;4950143;28;20561;-71
2023/05/08 09:16:05;;;;;;;4.88;2.97;;;21.70;96.80;;;;;;4951353;28;20043;-70
2023/05/08 09:18:31;;;;;;;6.10;2.75;;;21.10;99.40;;;;;;4953107;28;20031;-69
2023/05/08 09:20:57;;;;;;;5.73;2.23;;;22.40;99.10;;;;;;4952528;28;20043;-72
2023/05/08 09:23:23;;;;;;;;;;;21.50;99.10;;;;;;4954409;28;20038;-72
2023/05/08 09:25:52;;;;;;;5.50;3.30;;;21.40;98.70;;;;;;4967084;28;19910;-70
2023/05/08 09:28:18;;;;;;;3.72;2.28;;;24.10;96.70;;;;;;4951721;28;20042;-72
2023/05/08 09:30:55;;;;;;;3.35;2.55;;;23.60;92.10;;;;;;4950948;28;20035;-70
2023/05/08 09:33:28;;;;;;;6.68;3.60;;;21.60;94.70;;;;;;4952097;28;20035;-72
2023/05/08 09:35:54;;;;;;;4.20;2.88;;;26.70;90.00;;;;;;4950447;28;20555;-70
2023/05/08 09:38:40;;;;;;;4.00;2.10;;;28.10;83.80;;;;;;4951405;28;20411;-72
2023/05/08 09:41:11;;;;;;;4.25;2.20;;;25.60;84.00;;;;;;4952210;28;20078;-74
2023/05/08 09:43:37;;;;;;;3.50;1.80;;;26.40;81.50;;;;;;4946964;29;20503;-80
2023/05/08 09:46:33;;;;;;;2.78;1.40;;;24.20;85.80;;;;;;4952072;28;20046;-73
2023/05/08 09:49:00;;;;;;;4.50;1.50;;;25.10;85.90;;;;;;4949150;28;20490;-75
2023/05/08 09:51:28;;;;;;;5.75;1.50;;;25.20;85.80;;;;;;4954916;28;20038;-78
2023/05/08 09:53:56;;;;;;;2.13;1.15;;;23.70;89.00;;;;;;4947139;29;20053;-73
2023/05/08 09:56:37;;;;;;;1.90;1.27;;;23.10;90.40;;;;;;4955423;28;20561;-75
2023/05/08 09:59:05;;;;;;;3.65;1.60;;;22.60;91.30;;;;;;4952525;28;20492;-72
2023/05/08 10:01:33;;;;;;;4.10;1.38;;;22.80;92.40;;;;;;4950854;28;20131;-72
2023/05/08 10:03:59;;;;;;;2.55;1.67;;;22.80;91.70;;;;;;4952916;28;20093;-72
2023/05/08 10:06:27;;;;;;;2.28;1.67;;;22.10;92.30;;;;;;4954702;28;20090;-73
2023/05/08 10:09:12;;;;;;;3.67;1.40;;;22.30;92.90;;;;;;4950632;28;20015;-72
2023/05/08 10:11:51;;;;;;;5.40;1.38;;;21.70;93.40;;;;;;4952808;28;20396;-77
2023/05/08 10:14:18;;;;;;;2.00;1.10;;;21.90;93.10;;;;;;4951900;28;20089;-74
2023/05/08 10:16:45;;;;;;;1.63;1.17;;;22.50;91.30;;;;;;4949877;28;20035;-75
2023/05/08 10:19:13;;;;;;;3.92;1.10;;;21.70;92.10;;;;;;4951372;28;20022;-77
2023/05/08 10:21:43;;;;;;;2.28;1.13;;;24.60;92.10;;;;;;4956303;28;20039;-78
2023/05/08 10:24:16;;;;;;;1.95;1.00;;;26.10;82.90;;;;;;4955089;28;20023;-73
2023/05/08 10:26:56;;;;;;;1.30;1.20;;;23.90;86.10;;;;;;4952675;28;20035;-80
2023/05/08 10:29:31;;;;;;;1.98;1.15;;;24.30;88.60;;;;;;4950263;28;20055;-76
2023/05/08 10:31:58;;;;;;;1.20;0.95;;;23.60;89.20;;;;;;4945645;28;20031;-79
2023/05/08 10:34:28;;;;;;;2.08;1.30;;;22.80;90.50;;;;;;4949854;28;20031;-74
2023/05/08 10:36:54;;;;;;;1.77;1.10;;;22.10;92.20;;;;;;4954944;28;20121;-77
2023/05/08 10:39:21;;;;;;;2.13;1.70;;;21.70;92.70;;;;;;4950641;28;20146;-76
2023/05/08 10:41:48;;;;;;;5.43;2.08;;;21.50;93.20;;;;;;4949991;28;20054;-75
2023/05/08 10:44:14;;;;;;;2.72;1.80;;;21.20;94.40;;;;;;4955200;28;20432;-77
2023/05/08 10:46:53;;;;;;;4.53;1.88;;;20.90;95.10;;;;;;4951088;28;20038;-74
2023/05/08 10:49:59;;;;;;;6.75;1.60;;;20.90;96.30;;;;;;4954426;28;20403;-77
2023/05/08 10:52:58;;;;;;;1.65;1.33;;;20.90;96.00;;;;;;4955120;28;20047;-76
2023/05/08 10:55:32;;;;;;;2.33;1.23;;;21.00;96.30;;;;;;4947450;28;20809;-78
2023/05/08 10:58:11;;;;;;;2.78;1.55;;;20.80;96.40;;;;;;4947539;28;20035;-74
2023/05/08 11:00:51;;;;;;;1.98;1.40;;;20.90;96.80;;;;;;4949934;28;20042;-77
2023/05/08 11:03:18;;;;;;;1.83;1.20;;;20.80;97.30;;;;;;4952994;28;20038;-76
2023/05/08 11:05:46;;;;;;;2.42;1.27;;;20.80;95.70;;;;;;4953653;28;20574;-73
2023/05/08 11:08:17;;;;;;;1.60;1.05;;;21.10;96.10;;;;;;4951897;28;20034;-73
2023/05/08 11:10:47;;;;;;;3.95;1.25;;;22.40;95.40;;;;;;4950359;28;20039;-75
2023/05/08 11:13:17;;;;;;;3.95;1.63;;;22.60;94.10;;;;;;4952886;28;20052;-75
2023/05/08 11:15:49;;;;;;;2.10;1.70;;;22.60;93.70;;;;;;4949516;28;20035;-76
2023/05/08 11:18:16;;;;;;;3.17;1.77;;;22.70;93.10;;;;;;4948875;28;20024;-75
2023/05/08 11:21:13;;;;;;;3.63;1.30;;;22.20;93.80;;;;;;4938939;28;20026;-73
2023/05/08 11:23:39;;;;;;;2.38;1.30;;;21.80;93.60;;;;;;4951292;28;20503;-80
2023/05/08 11:26:11;;;;;;;1.67;1.58;;;21.60;94.60;;;;;;4955689;28;20102;-75
2023/05/08 11:28:38;;;;;;;1.00;0.90;;;22.60;94.20;;;;;;4948586;29;20035;-78
2023/05/08 11:31:06;;;;;;;1.70;1.27;;;22.30;93.30;;;;;;4947095;28;20035;-80
2023/05/08 11:33:36;;;;;;;3.55;1.40;;;22.20;93.60;;;;;;4948290;28;20087;-73
2023/05/08 11:36:21;;;;;;;1.80;1.33;;;22.10;94.10;;;;;;4953641;28;20022;-72
2023/05/08 11:39:09;;;;;;;1.48;1.00;;;22.50;92.70;;;;;;4951918;29;20503;-72
2023/05/08 11:41:35;;;;;;;3.08;1.60;;;22.00;94.30;;;;;;4956548;28;20039;-74
2023/05/08 11:44:04;;;;;;;2.20;1.20;;;21.80;94.50;;;;;;4953460;28;20054;-78
2023/05/08 11:46:52;;;;;;;4.97;1.55;;;21.60;94.70;;;;;;4953797;28;20023;-76
2023/05/08 11:49:18;;;;;;;;;;;21.50;95.70;;;;;;4947215;28;20043;-75
2023/05/08 11:51:46;;;;;;;1.92;1.10;;;21.40;95.30;;;;;;4950452;28;19910;-77
2023/05/08 11:54:17;;;;;;;2.65;1.33;;;21.20;94.10;;;;;;4949412;28;20050;-77
2023/05/08 11:56:45;;;;;;;2.20;1.30;;;21.40;94.30;;;;;;4949041;28;20118;-74
2023/05/08 11:59:12;;;;;;;4.30;1.40;;;21.60;94.10;;;;;;4946024;28;20102;-76
2023/05/08 12:01:37;;;;;;;2.95;1.17;;;21.50;94.00;;;;;;4951259;28;20042;-78
2023/05/08 12:04:05;;;;;;;1.70;1.10;;;21.70;93.60;;;;;;4951708;28;20018;-74
2023/05/08 12:06:32;;;;;;;2.67;1.42;;;22.40;94.10;;;;;;4948395;28;20373;-74
2023/05/08 12:09:04;;;;;;;5.22;1.00;;;21.90;94.00;;;;;;4952442;28;20392;-73
2023/05/08 12:11:30;;;;;;;2.35;1.40;;;21.90;94.40;;;;;;4946868;28;20110;-74
2023/05/08 12:13:56;;;;;;;;;;;22.00;92.90;;;;;;4950000;28;20031;-72
2023/05/08 12:16:23;;;;;;;3.47;1.00;;;22.10;93.20;;;;;;4951556;28;20402;-75
2023/05/08 12:18:50;;;;;;;1.33;0.90;;;22.30;91.80;;;;;;4948500;28;20118;-73
2023/05/08 12:21:16;;;;;;;1.27;0.80;;;22.50;91.80;;;;;;4950777;28;20027;-75
2023/05/08 12:23:42;;;;;;;2.08;0.82;;;22.70;90.30;;;;;;4949097;28;20777;-74
2023/05/08 12:26:07;;;;;;;0.65;0.60;;;22.80;90.90;;;;;;4949704;28;20040;-73
2023/05/08 12:28:33;;;;;;;1.33;0.75;;;22.90;90.90;;;;;;4949387;28;20114;-78
2023/05/08 12:31:00;;;;;;;0.88;0.70;;;23.00;91.20;;;;;;4948748;28;20042;-81
2023/05/08 12:33:27;;;;;;;12.98;1.08;;;23.00;89.00;;;;;;4942992;28;20034;-81
2023/05/08 12:35:54;;;;;;;0.95;0.50;;;23.00;87.20;;;;;;4948345;28;20574;-80
2023/05/08 12:38:27;;;;;;;0.80;0.70;;;22.70;88.60;;;;;;4952925;28;20022;-73
2023/05/08 12:40:56;;;;;;;3.42;1.08;;;22.80;87.60;;;;;;4948062;28;20039;-80
2023/05/08 12:43:35;;;;;;;1.67;1.00;;;22.80;90.70;;;;;;4950278;28;20492;-73
2023/05/08 12:46:02;;;;;;;3.67;1.23;;;23.10;87.50;;;;;;4951052;28;20027;-72
2023/05/08 12:48:28;;;;;;;4.95;0.65;;;22.80;86.90;;;;;;4951087;28;20030;-80
2023/05/08 12:50:59;;;;;;;1.55;0.90;;;22.50;86.10;;;;;;4947489;28;20500;-75
2023/05/08 12:53:29;;;;;;;0.90;0.68;;;22.90;86.40;;;;;;4952545;28;20035;-77